Time;durP1;ratioP1;P1;durP2;ratioP2;P2;SDS_P1;SDS_P2;PMS_P1;PMS_P2;Temp;Humidity;BMP_temperature;BMP_pressure;BME280_temperature;BME280_humidity;BME280_pressure;Samples;Min_cycle;Max_cycle;Signal;HPM_P1;HPM_P2
2022/11/20 00:00:47;;;;;;;35.50;17.70;;;;;;;;;;5083178;28;20510;-74
2022/11/20 00:03:13;;;;;;;37.80;19.67;;;;;;;;;;5083512;28;20070;-74
2022/11/20 00:05:39;;;;;;;38.72;18.52;;;;;;;;;;5086806;28;20052;-75
2022/11/20 00:08:05;;;;;;;37.78;19.38;;;;;;;;;;5084551;28;20069;-74
2022/11/20 00:10:31;;;;;;;36.97;18.27;;;;;;;;;;5077898;28;20035;-74
2022/11/20 00:12:58;;;;;;;33.45;16.77;;;;;;;;;;5088270;28;20104;-75
2022/11/20 00:15:24;;;;;;;37.17;18.35;;;;;;;;;;5062557;28;20032;-75
2022/11/20 00:17:50;;;;;;;33.50;19.63;;;;;;;;;;5088504;28;20031;-74
2022/11/20 00:20:16;;;;;;;34.67;19.42;;;;;;;;;;5065928;28;20039;-74
2022/11/20 00:22:42;;;;;;;29.27;17.52;;;;;;;;;;5092991;28;20370;-74
2022/11/20 00:25:08;;;;;;;31.38;18.40;;;;;;;;;;5084970;28;20535;-74
2022/11/20 00:27:34;;;;;;;31.25;19.35;;;;;;;;;;5086747;28;20031;-74
2022/11/20 00:30:00;;;;;;;30.70;18.17;;;;;;;;;;5086635;28;20049;-75
2022/11/20 00:32:26;;;;;;;32.97;17.30;;;;;;;;;;5086937;28;20059;-74
2022/11/20 00:34:52;;;;;;;27.10;15.60;;;;;;;;;;5074328;28;20024;-75
2022/11/20 00:37:18;;;;;;;23.65;14.00;;;;;;;;;;5083081;28;20513;-75
2022/11/20 00:39:44;;;;;;;23.98;13.40;;;;;;;;;;5079788;28;20110;-74
2022/11/20 00:42:10;;;;;;;24.90;13.50;;;;;;;;;;5083987;28;20090;-74
2022/11/20 00:44:36;;;;;;;25.52;13.00;;;;;;;;;;5081301;28;20060;-75
2022/11/20 00:47:02;;;;;;;22.95;13.65;;;;;;;;;;5087028;28;20070;-74
2022/11/20 00:49:28;;;;;;;23.52;14.50;;;;;;;;;;5086460;28;20029;-74
2022/11/20 00:51:54;;;;;;;24.75;13.50;;;;;;;;;;5089642;28;20388;-74
2022/11/20 00:54:20;;;;;;;23.35;12.13;;;;;;;;;;5071157;28;20052;-74
2022/11/20 00:56:46;;;;;;;19.58;11.43;;;;;;;;;;5076440;28;20398;-74
2022/11/20 00:59:12;;;;;;;22.55;9.35;;;;;;;;;;5079358;28;20078;-74
2022/11/20 01:01:38;;;;;;;16.95;8.30;;;;;;;;;;5082041;28;20028;-74
2022/11/20 01:04:04;;;;;;;13.02;7.43;;;;;;;;;;5097482;28;20123;-74
2022/11/20 01:06:32;;;;;;;15.15;6.90;;;;;;;;;;5077651;28;20818;-75
2022/11/20 01:08:59;;;;;;;15.45;7.53;;;;;;;;;;5083025;28;20034;-75
2022/11/20 01:11:27;;;;;;;13.52;6.38;;;;;;;;;;5082321;28;20086;-74
2022/11/20 01:13:54;;;;;;;15.98;7.93;;;;;;;;;;5084851;28;20435;-74
2022/11/20 01:16:24;;;;;;;13.05;6.45;;;;;;;;;;5079095;28;20036;-75
2022/11/20 01:18:51;;;;;;;11.18;6.95;;;;;;;;;;5085881;28;20039;-74
2022/11/20 01:21:21;;;;;;;14.52;7.45;;;;;;;;;;5082518;28;20118;-75
2022/11/20 01:23:48;;;;;;;16.33;8.07;;;;;;;;;;5082303;28;20777;-74
2022/11/20 01:26:19;;;;;;;16.70;8.02;;;;;;;;;;5086400;28;20037;-74
2022/11/20 01:28:45;;;;;;;12.52;6.72;;;;;;;;;;5086483;28;20148;-74
2022/11/20 01:31:15;;;;;;;13.55;8.18;;;;;;;;;;5095277;28;20089;-74
2022/11/20 01:33:41;;;;;;;16.20;6.68;;;;;;;;;;5087104;28;20046;-74
2022/11/20 01:36:07;;;;;;;13.55;7.13;;;;;;;;;;5085901;28;20051;-74
2022/11/20 01:38:34;;;;;;;14.38;6.90;;;;;;;;;;5078337;28;20020;-74
2022/11/20 01:41:00;;;;;;;14.45;6.18;;;;;;;;;;5089919;28;20036;-75
2022/11/20 01:43:26;;;;;;;12.55;7.45;;;;;;;;;;5086877;28;20036;-75
2022/11/20 01:46:27;;;;;;;11.93;6.00;;;;;;;;;;5088165;28;20075;-74
2022/11/20 01:49:02;;;;;;;11.63;6.25;;;;;;;;;;5018358;28;20029;-74
2022/11/20 01:51:46;;;;;;;14.35;7.57;;;;;;;;;;5075926;28;20052;-74
2022/11/20 01:54:15;;;;;;;12.48;6.75;;;;;;;;;;5080387;28;20039;-75
2022/11/20 01:56:43;;;;;;;13.02;5.90;;;;;;;;;;5079030;28;20028;-74
2022/11/20 01:59:11;;;;;;;14.15;6.93;;;;;;;;;;5074645;28;20032;-74
2022/11/20 02:01:38;;;;;;;15.10;6.78;;;;;;;;;;5087529;28;20075;-74
2022/11/20 02:04:05;;;;;;;15.95;8.02;;;;;;;;;;5081502;28;20110;-75
2022/11/20 02:06:33;;;;;;;15.35;8.23;;;;;;;;;;5080916;28;20093;-74
2022/11/20 02:08:59;;;;;;;18.77;8.18;;;;;;;;;;5080573;28;20024;-74
2022/11/20 02:11:25;;;;;;;19.25;7.88;;;;;;;;;;5089888;28;20412;-74
2022/11/20 02:13:51;;;;;;;12.50;7.13;;;;;;;;;;5079610;28;20032;-75
2022/11/20 02:16:20;;;;;;;13.02;7.35;;;;;;;;;;5093395;28;20675;-74
2022/11/20 02:18:46;;;;;;;15.27;7.30;;;;;;;;;;5076062;28;20037;-74
2022/11/20 02:21:12;;;;;;;11.27;5.75;;;;;;;;;;5076178;28;20036;-75
2022/11/20 02:23:40;;;;;;;10.82;6.00;;;;;;;;;;5084013;28;20030;-74
2022/11/20 02:26:08;;;;;;;8.00;4.50;;;;;;;;;;5079933;28;20036;-74
2022/11/20 02:28:34;;;;;;;9.15;4.40;;;;;;;;;;5071913;28;20021;-74
2022/11/20 02:31:01;;;;;;;10.70;5.10;;;;;;;;;;5088149;28;20033;-74
2022/11/20 02:33:27;;;;;;;8.02;5.13;;;;;;;;;;5083329;28;20599;-74
2022/11/20 02:35:53;;;;;;;10.40;4.68;;;;;;;;;;5086532;28;20040;-74
2022/11/20 02:38:19;;;;;;;9.10;4.90;;;;;;;;;;5079088;28;20051;-75
2022/11/20 02:40:45;;;;;;;10.25;4.45;;;;;;;;;;5082970;28;20028;-75
2022/11/20 02:43:12;;;;;;;12.60;5.93;;;;;;;;;;5078710;28;20358;-76
2022/11/20 02:45:38;;;;;;;9.45;4.65;;;;;;;;;;5075730;28;20037;-75
2022/11/20 02:48:04;;;;;;;9.27;4.88;;;;;;;;;;5077959;28;20036;-74
2022/11/20 02:50:30;;;;;;;15.07;5.68;;;;;;;;;;5070819;28;20039;-75
2022/11/20 02:52:56;;;;;;;10.90;6.30;;;;;;;;;;5090128;28;20135;-75
2022/11/20 02:55:22;;;;;;;11.00;5.75;;;;;;;;;;5087284;28;20123;-75
2022/11/20 02:57:48;;;;;;;14.35;6.57;;;;;;;;;;5077856;28;20785;-74
2022/11/20 03:00:14;;;;;;;11.77;6.93;;;;;;;;;;5083850;28;20040;-74
2022/11/20 03:02:40;;;;;;;9.68;5.60;;;;;;;;;;5083447;28;20705;-75
2022/11/20 03:05:06;;;;;;;13.68;7.35;;;;;;;;;;5078285;28;20047;-75
2022/11/20 03:07:32;;;;;;;12.48;5.82;;;;;;;;;;5086667;28;20139;-74
2022/11/20 03:09:58;;;;;;;9.80;5.50;;;;;;;;;;5082331;28;20091;-75
2022/11/20 03:12:24;;;;;;;10.60;6.10;;;;;;;;;;5075992;28;20544;-75
2022/11/20 03:14:50;;;;;;;12.18;6.32;;;;;;;;;;5077324;28;20016;-75
2022/11/20 03:17:16;;;;;;;10.85;6.10;;;;;;;;;;5077566;28;20041;-74
2022/11/20 03:19:42;;;;;;;13.18;7.22;;;;;;;;;;5080384;28;20031;-75
2022/11/20 03:22:08;;;;;;;12.70;5.75;;;;;;;;;;5090142;28;20066;-74
2022/11/20 03:24:34;;;;;;;10.48;5.93;;;;;;;;;;5077677;28;20053;-75
2022/11/20 03:27:00;;;;;;;14.38;7.35;;;;;;;;;;5086511;28;20064;-75
2022/11/20 03:29:26;;;;;;;115.20;48.28;;;;;;;;;;5093830;28;20508;-75
2022/11/20 03:31:52;;;;;;;162.75;68.65;;;;;;;;;;5083715;28;20032;-74
2022/11/20 03:34:18;;;;;;;206.15;87.35;;;;;;;;;;5088485;28;20020;-74
2022/11/20 03:36:44;;;;;;;204.95;87.43;;;;;;;;;;5078363;28;20032;-75
2022/11/20 03:39:11;;;;;;;194.43;85.68;;;;;;;;;;5085732;28;20473;-75
2022/11/20 03:41:38;;;;;;;202.95;90.57;;;;;;;;;;5077807;28;20400;-74
2022/11/20 03:44:05;;;;;;;100.82;45.85;;;;;;;;;;5086971;28;20070;-74
2022/11/20 03:46:31;;;;;;;86.88;39.22;;;;;;;;;;5086403;28;20036;-75
2022/11/20 03:48:57;;;;;;;55.50;27.77;;;;;;;;;;5078286;28;20050;-74
2022/11/20 03:51:27;;;;;;;43.25;20.08;;;;;;;;;;5090453;28;20040;-74
2022/11/20 03:53:55;;;;;;;27.58;13.45;;;;;;;;;;5088138;28;20020;-75
2022/11/20 03:56:23;;;;;;;19.40;10.75;;;;;;;;;;5083298;28;20036;-74
2022/11/20 03:58:50;;;;;;;22.13;9.13;;;;;;;;;;5089059;28;20566;-75
2022/11/20 04:01:23;;;;;;;16.65;9.23;;;;;;;;;;5078360;28;20046;-74
2022/11/20 04:03:49;;;;;;;13.88;8.32;;;;;;;;;;5089062;28;20137;-75
2022/11/20 04:06:17;;;;;;;16.67;10.27;;;;;;;;;;5075992;28;20058;-74
2022/11/20 04:08:44;;;;;;;19.67;9.90;;;;;;;;;;5081977;28;20031;-75
2022/11/20 04:11:11;;;;;;;24.88;12.05;;;;;;;;;;5086190;28;20087;-75
2022/11/20 04:13:37;;;;;;;25.08;13.40;;;;;;;;;;5089820;28;20032;-74
2022/11/20 04:16:03;;;;;;;24.98;12.25;;;;;;;;;;5083555;28;20414;-75
2022/11/20 04:18:29;;;;;;;22.75;12.32;;;;;;;;;;5074489;28;20020;-74
2022/11/20 04:20:57;;;;;;;23.42;13.27;;;;;;;;;;5084607;28;20033;-74
2022/11/20 04:23:23;;;;;;;18.40;10.40;;;;;;;;;;5081312;28;20028;-74
2022/11/20 04:25:49;;;;;;;16.45;9.40;;;;;;;;;;5081431;28;20036;-74
2022/11/20 04:28:15;;;;;;;16.27;9.30;;;;;;;;;;5084137;28;20039;-74
2022/11/20 04:30:41;;;;;;;16.17;9.07;;;;;;;;;;5085913;28;20112;-74
2022/11/20 04:33:07;;;;;;;18.80;9.30;;;;;;;;;;5085358;28;20069;-74
2022/11/20 04:35:36;;;;;;;22.00;10.23;;;;;;;;;;5085144;28;20082;-75
2022/11/20 04:38:02;;;;;;;20.15;10.82;;;;;;;;;;5078165;28;20028;-75
2022/11/20 04:40:28;;;;;;;17.20;9.60;;;;;;;;;;5076612;28;20040;-74
2022/11/20 04:42:55;;;;;;;25.38;13.80;;;;;;;;;;5078311;28;20108;-74
2022/11/20 04:45:21;;;;;;;27.98;14.65;;;;;;;;;;5077995;28;20098;-74
2022/11/20 04:47:47;;;;;;;32.95;21.05;;;;;;;;;;5082943;28;20632;-74
2022/11/20 04:50:13;;;;;;;33.55;23.70;;;;;;;;;;5084603;28;20028;-74
2022/11/20 04:52:39;;;;;;;30.80;19.65;;;;;;;;;;5086478;28;20032;-75
2022/11/20 04:55:05;;;;;;;29.08;19.33;;;;;;;;;;5079205;28;20047;-75
2022/11/20 04:57:31;;;;;;;20.55;13.60;;;;;;;;;;5080384;28;20078;-74
2022/11/20 04:59:57;;;;;;;21.60;12.82;;;;;;;;;;5086733;28;20036;-75
2022/11/20 05:02:23;;;;;;;20.52;13.02;;;;;;;;;;5087962;28;20028;-74
2022/11/20 05:04:49;;;;;;;19.75;12.75;;;;;;;;;;5078116;28;20159;-74
2022/11/20 05:07:15;;;;;;;20.23;12.30;;;;;;;;;;5073991;28;20090;-75
2022/11/20 05:09:41;;;;;;;19.23;11.05;;;;;;;;;;5088340;28;20032;-75
2022/11/20 05:12:08;;;;;;;18.20;11.77;;;;;;;;;;5089647;28;20100;-75
2022/11/20 05:14:34;;;;;;;18.63;10.38;;;;;;;;;;5084286;28;20557;-74
2022/11/20 05:17:00;;;;;;;18.23;11.02;;;;;;;;;;5079707;28;20440;-75
2022/11/20 05:19:26;;;;;;;17.13;9.40;;;;;;;;;;5085637;28;20103;-74
2022/11/20 05:21:52;;;;;;;16.23;9.52;;;;;;;;;;5085519;28;20039;-75
2022/11/20 05:24:18;;;;;;;19.23;10.55;;;;;;;;;;5082286;28;20474;-75
2022/11/20 05:26:44;;;;;;;15.65;9.77;;;;;;;;;;5084541;28;20078;-74
2022/11/20 05:29:11;;;;;;;18.67;10.70;;;;;;;;;;5076041;28;20158;-74
2022/11/20 05:31:39;;;;;;;16.30;10.90;;;;;;;;;;5090827;28;20038;-75
2022/11/20 05:34:05;;;;;;;14.68;9.30;;;;;;;;;;5081768;28;20414;-75
2022/11/20 05:36:31;;;;;;;14.95;9.13;;;;;;;;;;5086598;28;20110;-75
2022/11/20 05:38:57;;;;;;;16.73;10.40;;;;;;;;;;5081071;28;20031;-74
2022/11/20 05:41:23;;;;;;;18.48;11.75;;;;;;;;;;5089644;28;20419;-74
2022/11/20 05:43:49;;;;;;;19.55;12.10;;;;;;;;;;5083036;28;20078;-75
2022/11/20 05:46:16;;;;;;;23.15;11.93;;;;;;;;;;5084587;28;20043;-74
2022/11/20 05:48:43;;;;;;;18.33;11.35;;;;;;;;;;5075852;28;20021;-74
2022/11/20 05:51:10;;;;;;;21.50;11.85;;;;;;;;;;5076838;28;20040;-75
2022/11/20 05:53:36;;;;;;;20.30;11.40;;;;;;;;;;5086509;28;20032;-74
2022/11/20 05:56:07;;;;;;;18.35;11.65;;;;;;;;;;5085769;28;20135;-74
2022/11/20 05:58:33;;;;;;;18.15;11.80;;;;;;;;;;5080519;28;20508;-75
2022/11/20 06:01:08;;;;;;;14.80;10.45;;;;;;;;;;5086975;28;20123;-74
2022/11/20 06:03:34;;;;;;;18.52;10.40;;;;;;;;;;5091021;28;20046;-75
2022/11/20 06:06:01;;;;;;;17.38;10.57;;;;;;;;;;5082235;28;20492;-74
2022/11/20 06:08:27;;;;;;;16.23;9.88;;;;;;;;;;5080771;28;20024;-74
2022/11/20 06:10:53;;;;;;;15.95;10.98;;;;;;;;;;5075354;28;20040;-74
2022/11/20 06:13:19;;;;;;;20.55;11.13;;;;;;;;;;5089097;28;20043;-74
2022/11/20 06:15:51;;;;;;;17.13;11.63;;;;;;;;;;5084348;28;20036;-75
2022/11/20 06:18:17;;;;;;;18.50;12.05;;;;;;;;;;5078989;28;20028;-75
2022/11/20 06:20:43;;;;;;;16.60;10.35;;;;;;;;;;5079469;28;20138;-75
2022/11/20 06:23:09;;;;;;;16.60;10.55;;;;;;;;;;5078700;28;20111;-75
2022/11/20 06:25:39;;;;;;;18.73;12.10;;;;;;;;;;5079622;28;20453;-74
2022/11/20 06:28:05;;;;;;;15.80;9.85;;;;;;;;;;5076089;28;20132;-75
2022/11/20 06:30:31;;;;;;;19.40;11.45;;;;;;;;;;5075964;28;20517;-74
2022/11/20 06:32:57;;;;;;;18.73;9.73;;;;;;;;;;5087802;28;20073;-75
2022/11/20 06:35:23;;;;;;;20.77;11.32;;;;;;;;;;5076495;28;20414;-75
2022/11/20 06:37:49;;;;;;;16.40;9.75;;;;;;;;;;5086060;28;20032;-74
2022/11/20 06:40:15;;;;;;;15.57;9.40;;;;;;;;;;5075683;28;20059;-74
2022/11/20 06:42:41;;;;;;;19.63;10.82;;;;;;;;;;5080492;28;20032;-74
2022/11/20 06:45:07;;;;;;;16.38;9.63;;;;;;;;;;5081441;28;20028;-75
2022/11/20 06:47:33;;;;;;;19.70;11.68;;;;;;;;;;5078673;28;20036;-74
2022/11/20 06:49:59;;;;;;;17.98;11.25;;;;;;;;;;5085641;28;20024;-75
2022/11/20 06:52:25;;;;;;;18.80;10.75;;;;;;;;;;5081513;28;20035;-74
2022/11/20 06:54:51;;;;;;;16.65;9.50;;;;;;;;;;5083683;28;20024;-75
2022/11/20 06:57:17;;;;;;;14.20;9.85;;;;;;;;;;5077652;28;20060;-75
2022/11/20 06:59:43;;;;;;;14.80;8.18;;;;;;;;;;5086588;28;20024;-74
2022/11/20 07:02:12;;;;;;;17.98;8.60;;;;;;;;;;5077212;28;20419;-75
2022/11/20 07:04:39;;;;;;;11.60;6.95;;;;;;;;;;5076758;28;20029;-74
2022/11/20 07:07:06;;;;;;;14.27;8.50;;;;;;;;;;5074832;28;20055;-74
2022/11/20 07:09:32;;;;;;;15.85;10.35;;;;;;;;;;5080058;28;20021;-75
2022/11/20 07:11:58;;;;;;;14.40;9.57;;;;;;;;;;5083147;28;20114;-74
2022/11/20 07:14:24;;;;;;;13.98;9.45;;;;;;;;;;5080395;28;20116;-75
2022/11/20 07:16:50;;;;;;;16.38;11.52;;;;;;;;;;5076639;28;20044;-74
2022/11/20 07:19:16;;;;;;;17.70;11.82;;;;;;;;;;5082032;28;20070;-75
2022/11/20 07:21:42;;;;;;;19.58;12.13;;;;;;;;;;5077732;28;20580;-75
2022/11/20 07:24:08;;;;;;;14.82;9.50;;;;;;;;;;5077321;28;20127;-75
2022/11/20 07:26:34;;;;;;;15.90;8.65;;;;;;;;;;5079250;28;20087;-75
2022/11/20 07:29:00;;;;;;;15.38;10.10;;;;;;;;;;5076186;28;20767;-74
2022/11/20 07:31:26;;;;;;;11.75;5.75;;;;;;;;;;5081309;28;20082;-75
2022/11/20 07:33:52;;;;;;;9.82;4.07;;;;;;;;;;5089489;28;20592;-74
2022/11/20 07:36:18;;;;;;;7.03;3.15;;;;;;;;;;5084502;28;20119;-75
2022/11/20 07:38:44;;;;;;;7.05;3.55;;;;;;;;;;5085438;28;20080;-74
2022/11/20 07:41:10;;;;;;;13.43;6.88;;;;;;;;;;5080078;28;20071;-75
2022/11/20 07:43:36;;;;;;;15.77;8.32;;;;;;;;;;5076514;28;20038;-75
2022/11/20 07:46:03;;;;;;;15.45;8.90;;;;;;;;;;5075889;28;20028;-75
2022/11/20 07:48:29;;;;;;;13.25;9.13;;;;;;;;;;5085354;28;20028;-75
2022/11/20 07:50:56;;;;;;;13.00;7.80;;;;;;;;;;5081657;28;20101;-75
2022/11/20 07:53:22;;;;;;;13.65;8.70;;;;;;;;;;5080188;28;20411;-74
2022/11/20 07:55:48;;;;;;;13.32;7.43;;;;;;;;;;5079590;28;20123;-75
2022/11/20 07:58:15;;;;;;;13.30;7.50;;;;;;;;;;5081172;28;20489;-75
2022/11/20 08:00:41;;;;;;;14.45;6.95;;;;;;;;;;5079104;28;20580;-75
2022/11/20 08:03:07;;;;;;;14.25;7.32;;;;;;;;;;5080619;28;20036;-74
2022/11/20 08:05:34;;;;;;;15.07;9.10;;;;;;;;;;5087356;28;20048;-75
2022/11/20 08:08:00;;;;;;;13.10;8.77;;;;;;;;;;5082960;28;20028;-74
2022/11/20 08:10:26;;;;;;;14.48;8.90;;;;;;;;;;5083333;28;20039;-75
2022/11/20 08:15:38;;;;;;;16.63;8.93;;;;;;;;;;5084970;28;20048;-75
2022/11/20 08:18:06;;;;;;;13.98;8.00;;;;;;;;;;5080730;28;20414;-75
2022/11/20 08:20:32;;;;;;;14.00;7.40;;;;;;;;;;5084450;28;20130;-75
2022/11/20 08:22:59;;;;;;;14.90;7.63;;;;;;;;;;5082832;28;20032;-75
2022/11/20 08:25:25;;;;;;;11.63;6.35;;;;;;;;;;5087237;28;20731;-75
2022/11/20 08:27:51;;;;;;;8.65;5.40;;;;;;;;;;5079991;28;20043;-75
2022/11/20 08:30:17;;;;;;;19.95;6.75;;;;;;;;;;5083773;28;20028;-74
2022/11/20 08:32:43;;;;;;;15.50;8.65;;;;;;;;;;5079212;28;20377;-74
2022/11/20 08:35:09;;;;;;;13.02;9.45;;;;;;;;;;5081572;28;20031;-74
2022/11/20 08:37:37;;;;;;;17.40;10.40;;;;;;;;;;5074988;28;20154;-74
2022/11/20 08:40:03;;;;;;;17.83;11.73;;;;;;;;;;5077313;28;20485;-75
2022/11/20 08:42:29;;;;;;;21.83;13.23;;;;;;;;;;5083583;28;20028;-75
2022/11/20 08:44:55;;;;;;;18.52;10.55;;;;;;;;;;5080126;28;20031;-75
2022/11/20 08:47:21;;;;;;;15.02;8.40;;;;;;;;;;5079615;28;20078;-74
2022/11/20 08:49:47;;;;;;;16.77;10.40;;;;;;;;;;5085062;28;20031;-74
2022/11/20 08:52:13;;;;;;;14.25;10.18;;;;;;;;;;5079790;28;20063;-74
2022/11/20 08:54:39;;;;;;;14.90;9.73;;;;;;;;;;5079681;28;20024;-75
2022/11/20 08:57:05;;;;;;;17.38;11.27;;;;;;;;;;5076185;28;20048;-75
2022/11/20 08:59:31;;;;;;;20.23;12.85;;;;;;;;;;5072909;28;20039;-74
2022/11/20 09:01:58;;;;;;;23.58;15.88;;;;;;;;;;5082324;28;20124;-74
2022/11/20 09:04:24;;;;;;;16.80;10.82;;;;;;;;;;5081569;28;20028;-74
2022/11/20 09:06:51;;;;;;;15.10;9.73;;;;;;;;;;5039437;28;1204571;-75
2022/11/20 09:09:18;;;;;;;21.73;14.00;;;;;;;;;;5080318;28;20066;-75
2022/11/20 09:11:44;;;;;;;20.67;12.82;;;;;;;;;;5082073;28;20039;-74
2022/11/20 09:14:10;;;;;;;17.10;10.88;;;;;;;;;;5083744;28;20028;-75
2022/11/20 09:16:36;;;;;;;15.93;10.77;;;;;;;;;;5081365;28;20055;-75
2022/11/20 09:19:02;;;;;;;26.88;14.95;;;;;;;;;;5079825;28;20032;-74
2022/11/20 09:21:28;;;;;;;27.75;16.35;;;;;;;;;;5082586;28;20431;-75
2022/11/20 09:23:54;;;;;;;30.45;17.50;;;;;;;;;;5072014;28;20033;-74
2022/11/20 09:26:20;;;;;;;32.75;15.68;;;;;;;;;;5077597;28;20036;-74
2022/11/20 09:28:46;;;;;;;13.70;8.52;;;;;;;;;;5082168;28;20877;-75
2022/11/20 09:31:22;;;;;;;20.42;11.85;;;;;;;;;;5082342;28;20067;-74
2022/11/20 09:33:48;;;;;;;36.63;20.02;;;;;;;;;;5079030;28;20023;-74
2022/11/20 09:36:15;;;;;;;40.17;21.80;;;;;;;;;;5086369;28;20365;-75
2022/11/20 09:38:42;;;;;;;32.33;19.05;;;;;;;;;;5077867;28;20028;-75
2022/11/20 09:41:14;;;;;;;18.75;10.18;;;;;;;;;;5089003;28;20051;-75
2022/11/20 09:43:58;;;;;;;14.73;8.68;;;;;;;;;;5088111;28;20733;-74
2022/11/20 09:46:39;;;;;;;10.98;4.40;;;;;;;;;;5083676;28;20032;-75
2022/11/20 09:49:11;;;;;;;10.23;4.00;;;;;;;;;;5078827;28;20080;-75
2022/11/20 09:51:46;;;;;;;6.30;3.10;;;;;;;;;;5085587;28;20039;-74
2022/11/20 09:54:17;;;;;;;9.23;2.70;;;;;;;;;;5082937;28;20048;-75
2022/11/20 09:57:04;;;;;;;7.38;3.00;;;;;;;;;;5078409;28;20542;-75
2022/11/20 09:59:40;;;;;;;6.43;2.38;;;;;;;;;;5079049;28;20054;-75
2022/11/20 10:02:25;;;;;;;6.32;2.63;;;;;;;;;;5076374;28;20037;-74
2022/11/20 10:05:03;;;;;;;5.05;2.38;;;;;;;;;;5071520;28;20047;-75
2022/11/20 10:07:38;;;;;;;11.85;4.68;;;;;;;;;;5086138;28;20127;-74
2022/11/20 10:10:04;;;;;;;11.40;6.07;;;;;;;;;;5077869;28;20032;-75
2022/11/20 10:12:49;;;;;;;12.25;5.53;;;;;;;;;;5082849;28;20031;-74
2022/11/20 10:15:27;;;;;;;10.07;4.55;;;;;;;;;;5079056;28;20477;-75
2022/11/20 10:18:03;;;;;;;10.52;5.95;;;;;;;;;;5086140;28;20028;-75
2022/11/20 10:20:35;;;;;;;15.23;7.05;;;;;;;;;;5076454;28;20043;-75
2022/11/20 10:23:04;;;;;;;8.80;3.63;;;;;;;;;;5074259;28;20044;-74
2022/11/20 10:25:33;;;;;;;16.10;6.80;;;;;;;;;;5079497;28;20102;-74
2022/11/20 10:28:15;;;;;;;11.30;5.47;;;;;;;;;;5080590;28;20115;-74
2022/11/20 10:30:42;;;;;;;7.90;3.95;;;;;;;;;;5079526;28;20067;-74
2022/11/20 10:33:17;;;;;;;8.13;2.75;;;;;;;;;;5083784;28;20031;-74
2022/11/20 10:35:52;;;;;;;5.13;2.40;;;;;;;;;;5079608;28;20180;-75
2022/11/20 10:38:21;;;;;;;4.25;1.70;;;;;;;;;;5086025;28;20032;-74
2022/11/20 10:40:51;;;;;;;5.97;2.22;;;;;;;;;;5076734;28;20032;-75
2022/11/20 10:43:25;;;;;;;5.15;2.10;;;;;;;;;;5078601;28;20040;-74
2022/11/20 10:45:57;;;;;;;5.95;2.30;;;;;;;;;;5079542;28;20043;-75
2022/11/20 10:48:25;;;;;;;4.93;2.33;;;;;;;;;;5077799;28;20025;-74
2022/11/20 10:50:57;;;;;;;10.05;2.63;;;;;;;;;;5077828;28;20029;-75
2022/11/20 10:53:38;;;;;;;6.78;2.80;;;;;;;;;;5077804;28;20033;-74
2022/11/20 10:56:17;;;;;;;10.40;5.18;;;;;;;;;;5079657;28;20093;-75
2022/11/20 10:58:54;;;;;;;5.93;2.78;;;;;;;;;;5065111;28;20036;-75
2022/11/20 11:01:25;;;;;;;8.55;3.08;;;;;;;;;;5079128;28;20024;-75
2022/11/20 11:03:52;;;;;;;12.60;7.30;;;;;;;;;;5080922;28;20029;-75
2022/11/20 11:06:21;;;;;;;8.98;4.22;;;;;;;;;;5082687;28;20056;-75
2022/11/20 11:08:49;;;;;;;12.60;5.50;;;;;;;;;;5079926;28;20081;-74
2022/11/20 11:11:26;;;;;;;9.30;3.63;;;;;;;;;;5078984;28;20477;-75
2022/11/20 11:13:52;;;;;;;7.53;3.03;;;;;;;;;;5080245;28;20028;-74
2022/11/20 11:16:26;;;;;;;7.28;1.50;;;;;;;;;;5075721;28;20764;-75
2022/11/20 11:19:03;;;;;;;3.40;1.15;;;;;;;;;;5082398;28;20036;-75
2022/11/20 11:21:29;;;;;;;6.20;1.63;;;;;;;;;;5081432;28;20107;-75
2022/11/20 11:24:00;;;;;;;3.90;1.30;;;;;;;;;;5078577;28;20032;-75
2022/11/20 11:26:26;;;;;;;3.65;1.10;;;;;;;;;;5079331;28;20039;-74
2022/11/20 11:29:03;;;;;;;2.85;0.82;;;;;;;;;;5083640;28;20641;-74
2022/11/20 11:31:34;;;;;;;6.47;1.20;;;;;;;;;;5082217;28;20024;-75
2022/11/20 11:34:06;;;;;;;3.15;0.75;;;;;;;;;;5081881;28;20055;-74
2022/11/20 11:36:33;;;;;;;3.30;0.90;;;;;;;;;;5083908;28;20520;-75
2022/11/20 11:38:59;;;;;;;4.53;1.30;;;;;;;;;;5078694;28;20713;-75
2022/11/20 11:41:28;;;;;;;5.75;1.33;;;;;;;;;;5077229;28;20028;-74
2022/11/20 11:46:44;;;;;;;2.20;0.75;;;;;;;;;;5086153;28;20133;-74
2022/11/20 11:49:11;;;;;;;3.88;1.13;;;;;;;;;;5083488;28;20025;-74
2022/11/20 11:51:37;;;;;;;4.10;1.30;;;;;;;;;;5082984;28;20118;-75
2022/11/20 11:54:07;;;;;;;6.47;2.78;;;;;;;;;;5084935;28;20489;-74
2022/11/20 11:56:34;;;;;;;5.22;1.25;;;;;;;;;;5086463;28;20032;-74
2022/11/20 11:59:03;;;;;;;3.30;1.05;;;;;;;;;;5083242;28;20107;-74
2022/11/20 12:01:43;;;;;;;4.45;0.98;;;;;;;;;;5086580;28;20028;-75
2022/11/20 12:04:18;;;;;;;4.60;1.20;;;;;;;;;;5079957;28;20093;-75
2022/11/20 12:06:46;;;;;;;4.43;1.00;;;;;;;;;;5088092;28;20059;-75
2022/11/20 12:09:12;;;;;;;3.30;0.70;;;;;;;;;;5078810;28;20034;-74
2022/11/20 12:11:47;;;;;;;3.65;0.93;;;;;;;;;;5085346;28;20032;-75
2022/11/20 12:14:23;;;;;;;4.25;0.70;;;;;;;;;;5088174;28;20024;-75
2022/11/20 12:16:50;;;;;;;3.97;1.00;;;;;;;;;;5086814;28;20035;-75
2022/11/20 12:19:16;;;;;;;4.93;0.85;;;;;;;;;;5083766;28;20139;-74
2022/11/20 12:21:49;;;;;;;3.50;0.77;;;;;;;;;;5085408;28;20063;-74
2022/11/20 12:24:54;;;;;;;2.58;0.57;;;;;;;;;;5080071;28;20499;-74
2022/11/20 12:27:38;;;;;;;3.10;0.60;;;;;;;;;;4982310;28;20438;-75
2022/11/20 12:30:12;;;;;;;3.13;0.80;;;;;;;;;;4979359;28;20035;-74
2022/11/20 12:32:56;;;;;;;4.35;1.00;;;;;;;;;;5045164;28;20399;-75
2022/11/20 12:35:28;;;;;;;2.83;0.60;;;;;;;;;;5086666;28;20098;-74
2022/11/20 12:38:13;;;;;;;11.60;4.82;;;;;;;;;;5085195;28;20036;-74
2022/11/20 12:40:59;;;;;;;8.57;3.40;;;;;;;;;;5083096;28;20794;-74
2022/11/20 12:46:31;;;;;;;3.58;1.10;;;;;;;;;;5085423;28;20607;-75
2022/11/20 12:49:17;;;;;;;5.57;1.98;;;;;;;;;;5080305;28;20081;-74
2022/11/20 12:51:59;;;;;;;6.28;2.17;;;;;;;;;;5034386;28;20127;-74
2022/11/20 12:54:37;;;;;;;5.53;2.30;;;;;;;;;;5083429;28;20047;-75
2022/11/20 12:57:15;;;;;;;7.85;3.35;;;;;;;;;;5082295;28;20040;-75
2022/11/20 12:59:44;;;;;;;8.32;3.15;;;;;;;;;;5073857;28;20139;-74
2022/11/20 13:02:19;;;;;;;6.20;1.80;;;;;;;;;;5078059;28;20043;-75
2022/11/20 13:05:03;;;;;;;5.00;1.42;;;;;;;;;;5075975;28;20024;-74
2022/11/20 13:07:29;;;;;;;5.38;2.03;;;;;;;;;;5082325;28;20036;-75
2022/11/20 13:09:56;;;;;;;4.93;1.95;;;;;;;;;;5084492;28;20106;-74
2022/11/20 13:12:25;;;;;;;3.53;1.20;;;;;;;;;;5085261;28;20165;-74
2022/11/20 13:14:58;;;;;;;8.48;3.60;;;;;;;;;;5080543;28;20035;-75
2022/11/20 13:17:37;;;;;;;9.48;3.97;;;;;;;;;;5077861;28;20093;-75
2022/11/20 13:20:06;;;;;;;4.03;0.70;;;;;;;;;;5081400;28;20040;-75
2022/11/20 13:22:52;;;;;;;3.53;0.93;;;;;;;;;;5081578;28;20169;-74
2022/11/20 13:25:31;;;;;;;7.18;3.50;;;;;;;;;;5083563;28;20064;-74
2022/11/20 13:28:01;;;;;;;15.52;8.27;;;;;;;;;;5074447;28;20063;-74
2022/11/20 13:30:28;;;;;;;20.38;10.70;;;;;;;;;;5082962;28;20028;-74
2022/11/20 13:33:02;;;;;;;15.15;6.80;;;;;;;;;;5074388;28;20056;-74
2022/11/20 13:35:34;;;;;;;12.43;6.20;;;;;;;;;;5083037;28;20054;-74
2022/11/20 13:38:01;;;;;;;11.88;5.47;;;;;;;;;;5080415;28;20081;-75
2022/11/20 13:40:27;;;;;;;10.88;3.97;;;;;;;;;;5081965;28;20137;-74
2022/11/20 13:42:56;;;;;;;12.63;6.75;;;;;;;;;;5079482;28;20024;-74
2022/11/20 13:45:26;;;;;;;19.02;10.43;;;;;;;;;;5081417;28;20028;-74
2022/11/20 13:47:53;;;;;;;14.50;8.80;;;;;;;;;;5084842;28;20040;-75
2022/11/20 13:50:20;;;;;;;14.45;8.38;;;;;;;;;;5078399;28;20056;-74
2022/11/20 13:52:51;;;;;;;15.25;8.15;;;;;;;;;;5089209;28;20029;-74
2022/11/20 13:55:36;;;;;;;15.23;6.97;;;;;;;;;;5074972;28;20027;-75
2022/11/20 13:58:21;;;;;;;22.63;12.07;;;;;;;;;;5084220;28;20036;-74
2022/11/20 14:00:57;;;;;;;34.08;21.02;;;;;;;;;;5084840;28;20551;-74
2022/11/20 14:03:24;;;;;;;31.67;17.67;;;;;;;;;;5082340;28;20496;-75
2022/11/20 14:05:53;;;;;;;28.60;16.60;;;;;;;;;;5075225;28;20044;-74
2022/11/20 14:08:25;;;;;;;31.70;17.23;;;;;;;;;;5091039;28;20041;-74
2022/11/20 14:10:51;;;;;;;11.20;4.57;;;;;;;;;;5078991;28;20063;-75
2022/11/20 14:13:19;;;;;;;6.50;3.05;;;;;;;;;;5077905;28;20071;-74
2022/11/20 14:15:45;;;;;;;8.52;3.88;;;;;;;;;;5082255;28;20955;-74
2022/11/20 14:18:15;;;;;;;7.63;2.92;;;;;;;;;;5086327;28;20050;-74
2022/11/20 14:20:42;;;;;;;7.05;2.88;;;;;;;;;;5074399;28;20154;-74
2022/11/20 14:23:09;;;;;;;7.38;3.92;;;;;;;;;;5081249;28;20047;-75
2022/11/20 14:25:36;;;;;;;13.18;6.82;;;;;;;;;;5080122;28;20150;-75
2022/11/20 14:28:03;;;;;;;13.85;7.65;;;;;;;;;;5078965;28;20051;-74
2022/11/20 14:30:36;;;;;;;16.73;9.02;;;;;;;;;;5076003;28;20069;-75
2022/11/20 14:33:03;;;;;;;14.25;5.43;;;;;;;;;;5080196;28;20033;-75
2022/11/20 14:35:31;;;;;;;6.97;3.20;;;;;;;;;;5083081;28;20028;-74
2022/11/20 14:37:57;;;;;;;8.52;3.97;;;;;;;;;;5074575;28;20111;-74
2022/11/20 14:40:25;;;;;;;11.48;6.05;;;;;;;;;;5079932;28;20041;-74
2022/11/20 14:42:51;;;;;;;16.77;8.77;;;;;;;;;;5078368;28;20095;-75
2022/11/20 14:45:17;;;;;;;18.67;9.63;;;;;;;;;;5070766;28;20822;-75